sensor_id;sensor_type;location;lat;lon;timestamp;temperature;humidity
45044;DHT22;30784;48.490;9.688;2022-10-16T00:01:28;17.50;64.60
45044;DHT22;30784;48.490;9.688;2022-10-16T00:03:55;17.50;64.60
45044;DHT22;30784;48.490;9.688;2022-10-16T00:06:21;17.50;64.60
45044;DHT22;30784;48.490;9.688;2022-10-16T00:08:48;17.50;64.60
45044;DHT22;30784;48.490;9.688;2022-10-16T00:11:26;17.50;64.60
45044;DHT22;30784;48.490;9.688;2022-10-16T00:13:56;17.50;64.60
45044;DHT22;30784;48.490;9.688;2022-10-16T00:16:22;17.50;64.60
45044;DHT22;30784;48.490;9.688;2022-10-16T00:18:48;17.50;64.80
45044;DHT22;30784;48.490;9.688;2022-10-16T00:21:27;17.50;64.80
45044;DHT22;30784;48.490;9.688;2022-10-16T00:23:55;17.50;64.80
45044;DHT22;30784;48.490;9.688;2022-10-16T00:26:22;17.50;65.00
45044;DHT22;30784;48.490;9.688;2022-10-16T00:28:51;17.50;64.80
45044;DHT22;30784;48.490;9.688;2022-10-16T00:31:18;17.50;64.80
45044;DHT22;30784;48.490;9.688;2022-10-16T00:33:44;17.50;64.80
45044;DHT22;30784;48.490;9.688;2022-10-16T00:36:12;17.50;64.90
45044;DHT22;30784;48.490;9.688;2022-10-16T00:38:38;17.50;64.90
45044;DHT22;30784;48.490;9.688;2022-10-16T00:41:05;17.50;64.80
45044;DHT22;30784;48.490;9.688;2022-10-16T00:46:00;17.50;64.90
45044;DHT22;30784;48.490;9.688;2022-10-16T00:48:27;17.50;64.90
45044;DHT22;30784;48.490;9.688;2022-10-16T00:50:53;17.50;64.90
45044;DHT22;30784;48.490;9.688;2022-10-16T00:53:19;17.50;65.00
45044;DHT22;30784;48.490;9.688;2022-10-16T00:55:45;17.50;64.90
45044;DHT22;30784;48.490;9.688;2022-10-16T00:58:11;17.50;64.90
45044;DHT22;30784;48.490;9.688;2022-10-16T01:00:37;17.50;64.90
45044;DHT22;30784;48.490;9.688;2022-10-16T01:03:23;17.50;64.80
45044;DHT22;30784;48.490;9.688;2022-10-16T01:06:05;17.50;64.80
45044;DHT22;30784;48.490;9.688;2022-10-16T01:11:35;17.50;64.70
45044;DHT22;30784;48.490;9.688;2022-10-16T01:14:11;17.50;64.70
45044;DHT22;30784;48.490;9.688;2022-10-16T01:16:58;17.50;64.60
45044;DHT22;30784;48.490;9.688;2022-10-16T01:20:40;17.50;64.60
45044;DHT22;30784;48.490;9.688;2022-10-16T01:22:44;17.50;64.60
45044;DHT22;30784;48.490;9.688;2022-10-16T01:25:23;17.50;64.70
45044;DHT22;30784;48.490;9.688;2022-10-16T01:27:51;17.50;64.70
45044;DHT22;30784;48.490;9.688;2022-10-16T01:30:23;17.40;64.80
45044;DHT22;30784;48.490;9.688;2022-10-16T01:32:56;17.40;65.00
45044;DHT22;30784;48.490;9.688;2022-10-16T01:35:34;17.40;65.00
45044;DHT22;30784;48.490;9.688;2022-10-16T01:38:02;17.40;65.10
45044;DHT22;30784;48.490;9.688;2022-10-16T01:40:29;17.40;65.10
45044;DHT22;30784;48.490;9.688;2022-10-16T01:43:22;17.40;65.20
45044;DHT22;30784;48.490;9.688;2022-10-16T01:45:47;17.40;65.20
45044;DHT22;30784;48.490;9.688;2022-10-16T01:48:17;17.40;65.20
45044;DHT22;30784;48.490;9.688;2022-10-16T01:50:44;17.40;65.20
45044;DHT22;30784;48.490;9.688;2022-10-16T01:53:15;17.40;65.20
45044;DHT22;30784;48.490;9.688;2022-10-16T01:55:45;17.50;65.20
45044;DHT22;30784;48.490;9.688;2022-10-16T01:58:12;17.40;65.20
45044;DHT22;30784;48.490;9.688;2022-10-16T02:00:41;17.50;65.30
45044;DHT22;30784;48.490;9.688;2022-10-16T02:03:08;17.50;65.30
45044;DHT22;30784;48.490;9.688;2022-10-16T02:05:45;17.50;65.20
45044;DHT22;30784;48.490;9.688;2022-10-16T02:08:11;17.50;65.30
45044;DHT22;30784;48.490;9.688;2022-10-16T02:10:37;17.50;65.30
45044;DHT22;30784;48.490;9.688;2022-10-16T02:13:12;17.50;65.30
45044;DHT22;30784;48.490;9.688;2022-10-16T02:15:39;17.50;65.30
45044;DHT22;30784;48.490;9.688;2022-10-16T02:18:05;17.40;65.30
45044;DHT22;30784;48.490;9.688;2022-10-16T02:20:59;17.50;66.00
45044;DHT22;30784;48.490;9.688;2022-10-16T02:23:34;17.40;65.40
45044;DHT22;30784;48.490;9.688;2022-10-16T02:26:04;17.50;65.40
45044;DHT22;30784;48.490;9.688;2022-10-16T02:28:42;17.50;65.50
45044;DHT22;30784;48.490;9.688;2022-10-16T02:31:11;17.50;65.40
45044;DHT22;30784;48.490;9.688;2022-10-16T02:33:38;17.50;65.50
45044;DHT22;30784;48.490;9.688;2022-10-16T02:36:06;17.50;65.50
45044;DHT22;30784;48.490;9.688;2022-10-16T02:38:32;17.50;65.50
45044;DHT22;30784;48.490;9.688;2022-10-16T02:40:58;17.50;65.60
45044;DHT22;30784;48.490;9.688;2022-10-16T02:43:25;17.50;65.60
45044;DHT22;30784;48.490;9.688;2022-10-16T02:45:51;17.50;65.50
45044;DHT22;30784;48.490;9.688;2022-10-16T02:48:17;17.50;65.60
45044;DHT22;30784;48.490;9.688;2022-10-16T02:50:42;17.50;65.60
45044;DHT22;30784;48.490;9.688;2022-10-16T02:53:08;17.50;65.60
45044;DHT22;30784;48.490;9.688;2022-10-16T02:55:33;17.50;65.60
45044;DHT22;30784;48.490;9.688;2022-10-16T02:57:59;17.50;65.60
45044;DHT22;30784;48.490;9.688;2022-10-16T03:00:24;17.50;65.60
45044;DHT22;30784;48.490;9.688;2022-10-16T03:02:50;17.50;65.60
45044;DHT22;30784;48.490;9.688;2022-10-16T03:05:16;17.50;65.60
45044;DHT22;30784;48.490;9.688;2022-10-16T03:07:42;17.50;65.60
45044;DHT22;30784;48.490;9.688;2022-10-16T03:10:08;17.50;65.60
45044;DHT22;30784;48.490;9.688;2022-10-16T03:12:33;17.50;65.60
45044;DHT22;30784;48.490;9.688;2022-10-16T03:14:59;17.50;65.60
45044;DHT22;30784;48.490;9.688;2022-10-16T03:17:25;17.50;65.60
45044;DHT22;30784;48.490;9.688;2022-10-16T03:19:50;17.50;65.60
45044;DHT22;30784;48.490;9.688;2022-10-16T03:22:16;17.50;65.60
45044;DHT22;30784;48.490;9.688;2022-10-16T03:24:42;17.50;65.50
45044;DHT22;30784;48.490;9.688;2022-10-16T03:27:08;17.50;65.60
45044;DHT22;30784;48.490;9.688;2022-10-16T03:29:33;17.50;65.60
45044;DHT22;30784;48.490;9.688;2022-10-16T03:32:00;17.50;65.60
45044;DHT22;30784;48.490;9.688;2022-10-16T03:34:26;17.50;65.60
45044;DHT22;30784;48.490;9.688;2022-10-16T03:36:51;17.50;65.60
45044;DHT22;30784;48.490;9.688;2022-10-16T03:39:17;17.50;65.60
45044;DHT22;30784;48.490;9.688;2022-10-16T03:41:43;17.40;65.60
45044;DHT22;30784;48.490;9.688;2022-10-16T03:44:09;17.40;65.60
45044;DHT22;30784;48.490;9.688;2022-10-16T03:46:34;17.40;65.60
45044;DHT22;30784;48.490;9.688;2022-10-16T03:49:00;17.40;66.10
45044;DHT22;30784;48.490;9.688;2022-10-16T03:51:26;17.40;65.60
45044;DHT22;30784;48.490;9.688;2022-10-16T03:53:51;17.40;65.60
45044;DHT22;30784;48.490;9.688;2022-10-16T03:56:17;17.40;65.60
45044;DHT22;30784;48.490;9.688;2022-10-16T03:58:43;17.40;65.60
45044;DHT22;30784;48.490;9.688;2022-10-16T04:01:08;17.40;65.60
45044;DHT22;30784;48.490;9.688;2022-10-16T04:03:34;17.40;65.60
45044;DHT22;30784;48.490;9.688;2022-10-16T04:05:59;17.40;65.60
45044;DHT22;30784;48.490;9.688;2022-10-16T04:08:25;17.40;65.60
45044;DHT22;30784;48.490;9.688;2022-10-16T04:10:51;17.40;65.60
45044;DHT22;30784;48.490;9.688;2022-10-16T04:13:16;17.40;65.60
45044;DHT22;30784;48.490;9.688;2022-10-16T04:15:42;17.30;65.60
45044;DHT22;30784;48.490;9.688;2022-10-16T04:18:08;17.30;65.60
45044;DHT22;30784;48.490;9.688;2022-10-16T04:20:34;17.40;65.70
45044;DHT22;30784;48.490;9.688;2022-10-16T04:23:00;17.30;66.20
45044;DHT22;30784;48.490;9.688;2022-10-16T04:25:25;17.30;65.70
45044;DHT22;30784;48.490;9.688;2022-10-16T04:27:53;17.30;65.70
45044;DHT22;30784;48.490;9.688;2022-10-16T04:30:20;17.30;65.70
45044;DHT22;30784;48.490;9.688;2022-10-16T04:32:50;17.30;65.70
45044;DHT22;30784;48.490;9.688;2022-10-16T04:35:17;17.30;65.70
45044;DHT22;30784;48.490;9.688;2022-10-16T04:37:43;17.30;65.70
45044;DHT22;30784;48.490;9.688;2022-10-16T04:40:09;17.30;65.70
45044;DHT22;30784;48.490;9.688;2022-10-16T04:42:34;17.30;65.60
45044;DHT22;30784;48.490;9.688;2022-10-16T04:45:00;17.30;65.60
45044;DHT22;30784;48.490;9.688;2022-10-16T04:47:26;17.30;65.60
45044;DHT22;30784;48.490;9.688;2022-10-16T04:49:51;17.30;65.60
45044;DHT22;30784;48.490;9.688;2022-10-16T04:52:17;17.30;65.60
45044;DHT22;30784;48.490;9.688;2022-10-16T04:54:44;17.30;65.60
45044;DHT22;30784;48.490;9.688;2022-10-16T04:57:11;17.30;65.50
45044;DHT22;30784;48.490;9.688;2022-10-16T04:59:37;17.30;65.50
45044;DHT22;30784;48.490;9.688;2022-10-16T05:02:03;17.30;65.50
45044;DHT22;30784;48.490;9.688;2022-10-16T05:04:28;17.30;66.10
45044;DHT22;30784;48.490;9.688;2022-10-16T05:06:54;17.30;65.50
45044;DHT22;30784;48.490;9.688;2022-10-16T05:09:20;17.30;65.60
45044;DHT22;30784;48.490;9.688;2022-10-16T05:11:46;17.30;65.50
45044;DHT22;30784;48.490;9.688;2022-10-16T05:14:11;17.20;65.50
45044;DHT22;30784;48.490;9.688;2022-10-16T05:16:37;17.30;65.60
45044;DHT22;30784;48.490;9.688;2022-10-16T05:19:03;17.30;65.60
45044;DHT22;30784;48.490;9.688;2022-10-16T05:21:29;17.20;65.60
45044;DHT22;30784;48.490;9.688;2022-10-16T05:23:54;17.20;65.60
45044;DHT22;30784;48.490;9.688;2022-10-16T05:26:20;17.20;65.60
45044;DHT22;30784;48.490;9.688;2022-10-16T05:28:46;17.20;65.70
45044;DHT22;30784;48.490;9.688;2022-10-16T05:31:12;17.20;65.70
45044;DHT22;30784;48.490;9.688;2022-10-16T05:33:37;17.20;65.80
45044;DHT22;30784;48.490;9.688;2022-10-16T05:36:07;17.20;65.80
45044;DHT22;30784;48.490;9.688;2022-10-16T05:38:33;17.20;65.80
45044;DHT22;30784;48.490;9.688;2022-10-16T05:40:59;17.20;65.80
45044;DHT22;30784;48.490;9.688;2022-10-16T05:43:26;17.20;65.70
45044;DHT22;30784;48.490;9.688;2022-10-16T05:46:01;17.20;65.70
45044;DHT22;30784;48.490;9.688;2022-10-16T05:48:28;17.20;65.70
45044;DHT22;30784;48.490;9.688;2022-10-16T05:51:05;17.20;65.80
45044;DHT22;30784;48.490;9.688;2022-10-16T05:53:33;17.20;65.80
45044;DHT22;30784;48.490;9.688;2022-10-16T05:56:00;17.20;65.90
45044;DHT22;30784;48.490;9.688;2022-10-16T05:58:32;17.20;66.00
45044;DHT22;30784;48.490;9.688;2022-10-16T06:01:11;17.20;65.90
45044;DHT22;30784;48.490;9.688;2022-10-16T06:03:37;17.20;65.80
45044;DHT22;30784;48.490;9.688;2022-10-16T06:06:16;17.20;65.90
45044;DHT22;30784;48.490;9.688;2022-10-16T06:08:43;17.20;65.90
45044;DHT22;30784;48.490;9.688;2022-10-16T06:11:15;17.20;65.90
45044;DHT22;30784;48.490;9.688;2022-10-16T06:13:41;17.20;65.80
45044;DHT22;30784;48.490;9.688;2022-10-16T06:16:09;17.20;65.80
45044;DHT22;30784;48.490;9.688;2022-10-16T06:18:35;17.20;65.70
45044;DHT22;30784;48.490;9.688;2022-10-16T06:21:11;17.30;65.70
45044;DHT22;30784;48.490;9.688;2022-10-16T06:23:36;17.30;65.60
45044;DHT22;30784;48.490;9.688;2022-10-16T06:26:10;17.30;65.60
45044;DHT22;30784;48.490;9.688;2022-10-16T06:28:36;17.30;65.50
45044;DHT22;30784;48.490;9.688;2022-10-16T06:31:04;17.30;65.50
45044;DHT22;30784;48.490;9.688;2022-10-16T06:33:30;17.30;65.40
45044;DHT22;30784;48.490;9.688;2022-10-16T06:36:03;17.40;65.50
45044;DHT22;30784;48.490;9.688;2022-10-16T06:38:29;17.40;65.50
45044;DHT22;30784;48.490;9.688;2022-10-16T06:40:55;17.40;66.00
45044;DHT22;30784;48.490;9.688;2022-10-16T06:43:21;17.40;65.40
45044;DHT22;30784;48.490;9.688;2022-10-16T06:45:54;17.40;65.30
45044;DHT22;30784;48.490;9.688;2022-10-16T06:48:20;17.50;65.20
45044;DHT22;30784;48.490;9.688;2022-10-16T06:53:22;17.50;65.10
45044;DHT22;30784;48.490;9.688;2022-10-16T06:55:48;17.50;65.00
45044;DHT22;30784;48.490;9.688;2022-10-16T06:58:14;17.60;65.00
45044;DHT22;30784;48.490;9.688;2022-10-16T07:00:39;17.60;65.10
45044;DHT22;30784;48.490;9.688;2022-10-16T07:03:05;17.60;64.90
45044;DHT22;30784;48.490;9.688;2022-10-16T07:05:30;17.60;64.90
45044;DHT22;30784;48.490;9.688;2022-10-16T07:07:56;17.70;64.90
45044;DHT22;30784;48.490;9.688;2022-10-16T07:10:22;17.70;64.80
45044;DHT22;30784;48.490;9.688;2022-10-16T07:12:49;17.70;64.70
45044;DHT22;30784;48.490;9.688;2022-10-16T07:15:15;17.80;64.60
45044;DHT22;30784;48.490;9.688;2022-10-16T07:17:41;17.80;64.70
45044;DHT22;30784;48.490;9.688;2022-10-16T07:20:07;17.80;64.60
45044;DHT22;30784;48.490;9.688;2022-10-16T07:22:32;17.80;64.40
45044;DHT22;30784;48.490;9.688;2022-10-16T07:24:58;17.90;64.30
45044;DHT22;30784;48.490;9.688;2022-10-16T07:27:24;17.90;64.10
45044;DHT22;30784;48.490;9.688;2022-10-16T07:29:50;18.00;64.30
45044;DHT22;30784;48.490;9.688;2022-10-16T07:32:15;18.00;64.20
45044;DHT22;30784;48.490;9.688;2022-10-16T07:34:41;18.00;64.30
45044;DHT22;30784;48.490;9.688;2022-10-16T07:37:07;18.00;64.20
45044;DHT22;30784;48.490;9.688;2022-10-16T07:39:33;18.00;64.10
45044;DHT22;30784;48.490;9.688;2022-10-16T07:41:59;18.10;64.00
45044;DHT22;30784;48.490;9.688;2022-10-16T07:44:24;18.10;64.00
45044;DHT22;30784;48.490;9.688;2022-10-16T07:46:50;18.20;64.10
45044;DHT22;30784;48.490;9.688;2022-10-16T07:49:15;18.20;64.10
45044;DHT22;30784;48.490;9.688;2022-10-16T07:51:41;18.20;63.80
45044;DHT22;30784;48.490;9.688;2022-10-16T07:54:09;18.20;63.80
45044;DHT22;30784;48.490;9.688;2022-10-16T07:56:34;18.30;63.90
45044;DHT22;30784;48.490;9.688;2022-10-16T07:59:00;18.30;63.80
45044;DHT22;30784;48.490;9.688;2022-10-16T08:01:26;18.30;63.70
45044;DHT22;30784;48.490;9.688;2022-10-16T08:03:52;18.40;63.70
45044;DHT22;30784;48.490;9.688;2022-10-16T08:06:19;18.40;63.60
45044;DHT22;30784;48.490;9.688;2022-10-16T08:08:45;18.40;63.50
45044;DHT22;30784;48.490;9.688;2022-10-16T08:11:11;18.50;63.40
45044;DHT22;30784;48.490;9.688;2022-10-16T08:13:37;18.50;63.30
45044;DHT22;30784;48.490;9.688;2022-10-16T08:16:02;18.50;63.30
45044;DHT22;30784;48.490;9.688;2022-10-16T08:18:34;18.60;63.40
45044;DHT22;30784;48.490;9.688;2022-10-16T08:21:00;18.60;63.10
45044;DHT22;30784;48.490;9.688;2022-10-16T08:23:27;18.60;62.90
45044;DHT22;30784;48.490;9.688;2022-10-16T08:25:55;18.70;62.90
45044;DHT22;30784;48.490;9.688;2022-10-16T08:28:22;18.70;62.80
45044;DHT22;30784;48.490;9.688;2022-10-16T08:30:47;18.80;62.70
45044;DHT22;30784;48.490;9.688;2022-10-16T08:33:13;18.80;62.60
45044;DHT22;30784;48.490;9.688;2022-10-16T08:35:39;18.80;62.40
45044;DHT22;30784;48.490;9.688;2022-10-16T08:38:06;18.90;62.40
45044;DHT22;30784;48.490;9.688;2022-10-16T08:40:33;18.90;62.30
45044;DHT22;30784;48.490;9.688;2022-10-16T08:46:14;19.00;62.00
45044;DHT22;30784;48.490;9.688;2022-10-16T08:48:50;19.00;62.00
45044;DHT22;30784;48.490;9.688;2022-10-16T08:51:35;19.10;61.90
45044;DHT22;30784;48.490;9.688;2022-10-16T08:54:03;19.10;62.10
45044;DHT22;30784;48.490;9.688;2022-10-16T08:56:30;19.20;61.90
45044;DHT22;30784;48.490;9.688;2022-10-16T08:58:58;19.20;61.60
45044;DHT22;30784;48.490;9.688;2022-10-16T09:01:32;19.30;61.60
45044;DHT22;30784;48.490;9.688;2022-10-16T09:04:12;19.30;61.60
45044;DHT22;30784;48.490;9.688;2022-10-16T09:06:47;19.30;61.40
45044;DHT22;30784;48.490;9.688;2022-10-16T09:15:07;19.40;61.20
45044;DHT22;30784;48.490;9.688;2022-10-16T09:18:03;19.40;61.20
45044;DHT22;30784;48.490;9.688;2022-10-16T09:25:29;19.40;61.00
45044;DHT22;30784;48.490;9.688;2022-10-16T09:27:55;19.50;60.90
45044;DHT22;30784;48.490;9.688;2022-10-16T09:30:21;19.50;60.90
45044;DHT22;30784;48.490;9.688;2022-10-16T09:32:51;19.50;60.80
45044;DHT22;30784;48.490;9.688;2022-10-16T09:35:22;19.50;61.00
45044;DHT22;30784;48.490;9.688;2022-10-16T09:37:50;19.50;61.00
45044;DHT22;30784;48.490;9.688;2022-10-16T09:40:32;19.60;60.80
45044;DHT22;30784;48.490;9.688;2022-10-16T09:45:38;19.70;61.00
45044;DHT22;30784;48.490;9.688;2022-10-16T09:48:12;19.80;61.60
45044;DHT22;30784;48.490;9.688;2022-10-16T09:50:38;19.90;61.00
45044;DHT22;30784;48.490;9.688;2022-10-16T09:55:35;20.10;60.50
45044;DHT22;30784;48.490;9.688;2022-10-16T09:58:01;20.20;60.40
45044;DHT22;30784;48.490;9.688;2022-10-16T10:00:27;20.30;60.20
45044;DHT22;30784;48.490;9.688;2022-10-16T10:02:54;20.40;60.10
45044;DHT22;30784;48.490;9.688;2022-10-16T10:08:00;20.50;59.50
45044;DHT22;30784;48.490;9.688;2022-10-16T10:10:34;20.70;59.40
45044;DHT22;30784;48.490;9.688;2022-10-16T10:13:02;20.70;59.30
45044;DHT22;30784;48.490;9.688;2022-10-16T10:15:33;20.80;59.00
45044;DHT22;30784;48.490;9.688;2022-10-16T10:18:00;20.80;58.70
45044;DHT22;30784;48.490;9.688;2022-10-16T10:20:33;20.90;58.40
45044;DHT22;30784;48.490;9.688;2022-10-16T10:23:00;20.90;58.50
45044;DHT22;30784;48.490;9.688;2022-10-16T10:25:42;20.90;58.10
45044;DHT22;30784;48.490;9.688;2022-10-16T10:30:50;21.00;57.40
45044;DHT22;30784;48.490;9.688;2022-10-16T10:36:37;21.00;57.80
45044;DHT22;30784;48.490;9.688;2022-10-16T10:39:40;21.10;57.40
45044;DHT22;30784;48.490;9.688;2022-10-16T10:42:25;21.00;57.50
45044;DHT22;30784;48.490;9.688;2022-10-16T10:45:27;21.00;57.00
45044;DHT22;30784;48.490;9.688;2022-10-16T10:50:45;21.00;56.90
45044;DHT22;30784;48.490;9.688;2022-10-16T10:57:09;21.00;57.10
45044;DHT22;30784;48.490;9.688;2022-10-16T11:04:42;21.00;56.60
45044;DHT22;30784;48.490;9.688;2022-10-16T11:07:17;21.00;56.70
45044;DHT22;30784;48.490;9.688;2022-10-16T11:10:24;21.00;56.60
45044;DHT22;30784;48.490;9.688;2022-10-16T11:15:39;21.00;57.10
45044;DHT22;30784;48.490;9.688;2022-10-16T11:20:47;21.20;57.50
45044;DHT22;30784;48.490;9.688;2022-10-16T11:23:35;21.30;57.60
45044;DHT22;30784;48.490;9.688;2022-10-16T11:26:08;21.50;57.20
45044;DHT22;30784;48.490;9.688;2022-10-16T11:28:46;21.70;57.00
45044;DHT22;30784;48.490;9.688;2022-10-16T11:36:36;22.30;56.70
45044;DHT22;30784;48.490;9.688;2022-10-16T11:41:52;22.70;56.00
45044;DHT22;30784;48.490;9.688;2022-10-16T11:47:34;23.20;55.70
45044;DHT22;30784;48.490;9.688;2022-10-16T11:55:42;24.10;55.00
45044;DHT22;30784;48.490;9.688;2022-10-16T11:58:22;24.40;54.10
45044;DHT22;30784;48.490;9.688;2022-10-16T12:00:58;24.60;53.40
45044;DHT22;30784;48.490;9.688;2022-10-16T12:03:30;24.90;53.10
45044;DHT22;30784;48.490;9.688;2022-10-16T12:08:36;25.30;51.60
45044;DHT22;30784;48.490;9.688;2022-10-16T12:16:59;25.70;50.00
45044;DHT22;30784;48.490;9.688;2022-10-16T12:19:27;25.80;48.00
45044;DHT22;30784;48.490;9.688;2022-10-16T12:21:59;26.00;49.60
45044;DHT22;30784;48.490;9.688;2022-10-16T12:24:38;26.10;47.80
45044;DHT22;30784;48.490;9.688;2022-10-16T12:27:06;26.20;48.10
45044;DHT22;30784;48.490;9.688;2022-10-16T12:29:33;26.30;46.90
45044;DHT22;30784;48.490;9.688;2022-10-16T12:32:00;26.30;46.30
45044;DHT22;30784;48.490;9.688;2022-10-16T12:34:43;26.30;46.80
45044;DHT22;30784;48.490;9.688;2022-10-16T12:37:19;26.30;47.30
45044;DHT22;30784;48.490;9.688;2022-10-16T12:39:47;26.40;45.90
45044;DHT22;30784;48.490;9.688;2022-10-16T12:44:51;26.50;46.30
45044;DHT22;30784;48.490;9.688;2022-10-16T12:47:49;26.60;46.20
45044;DHT22;30784;48.490;9.688;2022-10-16T12:50:29;26.60;46.40
45044;DHT22;30784;48.490;9.688;2022-10-16T12:52:57;26.80;45.50
45044;DHT22;30784;48.490;9.688;2022-10-16T12:55:23;26.90;44.60
45044;DHT22;30784;48.490;9.688;2022-10-16T12:58:09;26.90;44.20
45044;DHT22;30784;48.490;9.688;2022-10-16T13:00:57;26.90;43.90
45044;DHT22;30784;48.490;9.688;2022-10-16T13:03:48;26.90;44.00
45044;DHT22;30784;48.490;9.688;2022-10-16T13:06:50;26.90;44.10
45044;DHT22;30784;48.490;9.688;2022-10-16T13:27:06;26.90;42.90
45044;DHT22;30784;48.490;9.688;2022-10-16T13:29:33;26.90;42.30
45044;DHT22;30784;48.490;9.688;2022-10-16T13:32:01;26.90;42.60
45044;DHT22;30784;48.490;9.688;2022-10-16T13:34:32;26.90;42.40
45044;DHT22;30784;48.490;9.688;2022-10-16T13:36:57;26.90;42.40
45044;DHT22;30784;48.490;9.688;2022-10-16T13:39:28;26.90;42.30
45044;DHT22;30784;48.490;9.688;2022-10-16T13:44:38;26.90;42.50
45044;DHT22;30784;48.490;9.688;2022-10-16T13:47:05;26.90;41.90
45044;DHT22;30784;48.490;9.688;2022-10-16T13:49:30;27.00;41.90
45044;DHT22;30784;48.490;9.688;2022-10-16T13:51:59;26.90;41.30
45044;DHT22;30784;48.490;9.688;2022-10-16T13:54:26;26.90;41.40
45044;DHT22;30784;48.490;9.688;2022-10-16T13:56:54;26.80;41.50
45044;DHT22;30784;48.490;9.688;2022-10-16T13:59:47;26.80;41.30
45044;DHT22;30784;48.490;9.688;2022-10-16T14:02:21;26.80;41.70
45044;DHT22;30784;48.490;9.688;2022-10-16T14:04:49;26.80;41.60
45044;DHT22;30784;48.490;9.688;2022-10-16T14:07:24;26.80;41.70
45044;DHT22;30784;48.490;9.688;2022-10-16T14:09:52;26.70;41.80
45044;DHT22;30784;48.490;9.688;2022-10-16T14:12:18;26.70;41.80
45044;DHT22;30784;48.490;9.688;2022-10-16T14:14:47;26.70;42.00
45044;DHT22;30784;48.490;9.688;2022-10-16T14:17:24;26.60;42.40
45044;DHT22;30784;48.490;9.688;2022-10-16T14:19:53;26.60;41.80
45044;DHT22;30784;48.490;9.688;2022-10-16T14:22:30;26.50;41.80
45044;DHT22;30784;48.490;9.688;2022-10-16T14:24:57;26.40;41.90
45044;DHT22;30784;48.490;9.688;2022-10-16T14:27:34;26.30;42.00
45044;DHT22;30784;48.490;9.688;2022-10-16T14:30:22;26.20;42.00
45044;DHT22;30784;48.490;9.688;2022-10-16T14:33:05;26.10;42.10
45044;DHT22;30784;48.490;9.688;2022-10-16T14:35:39;26.00;42.00
45044;DHT22;30784;48.490;9.688;2022-10-16T14:38:06;25.90;42.00
45044;DHT22;30784;48.490;9.688;2022-10-16T14:40:47;25.80;42.00
45044;DHT22;30784;48.490;9.688;2022-10-16T14:43:22;25.70;42.20
45044;DHT22;30784;48.490;9.688;2022-10-16T14:45:53;25.60;42.30
45044;DHT22;30784;48.490;9.688;2022-10-16T14:48:20;25.50;42.50
45044;DHT22;30784;48.490;9.688;2022-10-16T14:50:46;25.40;42.60
45044;DHT22;30784;48.490;9.688;2022-10-16T14:53:13;25.30;42.80
45044;DHT22;30784;48.490;9.688;2022-10-16T14:55:40;25.20;43.00
45044;DHT22;30784;48.490;9.688;2022-10-16T14:58:19;25.10;43.10
45044;DHT22;30784;48.490;9.688;2022-10-16T15:00:46;25.00;43.10
45044;DHT22;30784;48.490;9.688;2022-10-16T15:03:12;24.90;43.30
45044;DHT22;30784;48.490;9.688;2022-10-16T15:05:38;24.80;43.60
45044;DHT22;30784;48.490;9.688;2022-10-16T15:08:04;24.70;44.00
45044;DHT22;30784;48.490;9.688;2022-10-16T15:10:31;24.60;44.10
45044;DHT22;30784;48.490;9.688;2022-10-16T15:12:58;24.50;44.60
45044;DHT22;30784;48.490;9.688;2022-10-16T15:15:35;24.40;44.60
45044;DHT22;30784;48.490;9.688;2022-10-16T15:18:01;24.30;44.50
45044;DHT22;30784;48.490;9.688;2022-10-16T15:20:30;24.20;44.80
45044;DHT22;30784;48.490;9.688;2022-10-16T15:22:57;24.20;45.70
45044;DHT22;30784;48.490;9.688;2022-10-16T15:25:50;24.10;45.40
45044;DHT22;30784;48.490;9.688;2022-10-16T15:28:17;24.00;45.30
45044;DHT22;30784;48.490;9.688;2022-10-16T15:30:43;23.90;45.70
45044;DHT22;30784;48.490;9.688;2022-10-16T15:33:20;23.80;45.90
45044;DHT22;30784;48.490;9.688;2022-10-16T15:35:47;23.70;46.20
45044;DHT22;30784;48.490;9.688;2022-10-16T15:38:14;23.70;46.40
45044;DHT22;30784;48.490;9.688;2022-10-16T15:40:41;23.60;46.40
45044;DHT22;30784;48.490;9.688;2022-10-16T15:43:07;23.50;46.80
45044;DHT22;30784;48.490;9.688;2022-10-16T15:45:32;23.40;47.60
45044;DHT22;30784;48.490;9.688;2022-10-16T15:47:58;23.40;47.20
45044;DHT22;30784;48.490;9.688;2022-10-16T15:50:24;23.30;47.20
45044;DHT22;30784;48.490;9.688;2022-10-16T15:52:50;23.20;47.60
45044;DHT22;30784;48.490;9.688;2022-10-16T15:55:16;23.20;47.60
45044;DHT22;30784;48.490;9.688;2022-10-16T15:57:44;23.20;47.70
45044;DHT22;30784;48.490;9.688;2022-10-16T16:00:13;23.10;47.90
45044;DHT22;30784;48.490;9.688;2022-10-16T16:02:40;23.10;48.10
45044;DHT22;30784;48.490;9.688;2022-10-16T16:05:07;23.10;48.30
45044;DHT22;30784;48.490;9.688;2022-10-16T16:07:37;23.10;48.40
45044;DHT22;30784;48.490;9.688;2022-10-16T16:10:04;23.10;48.40
45044;DHT22;30784;48.490;9.688;2022-10-16T16:12:30;23.10;47.50
45044;DHT22;30784;48.490;9.688;2022-10-16T16:14:56;23.10;48.50
45044;DHT22;30784;48.490;9.688;2022-10-16T16:17:21;23.10;48.60
45044;DHT22;30784;48.490;9.688;2022-10-16T16:19:47;23.00;48.70
45044;DHT22;30784;48.490;9.688;2022-10-16T16:22:13;23.00;48.70
45044;DHT22;30784;48.490;9.688;2022-10-16T16:24:39;23.00;48.70
45044;DHT22;30784;48.490;9.688;2022-10-16T16:27:04;22.90;48.80
45044;DHT22;30784;48.490;9.688;2022-10-16T16:29:30;22.80;48.80
45044;DHT22;30784;48.490;9.688;2022-10-16T16:31:55;22.80;49.00
45044;DHT22;30784;48.490;9.688;2022-10-16T16:34:29;22.80;49.30
45044;DHT22;30784;48.490;9.688;2022-10-16T16:36:55;22.70;48.90
45044;DHT22;30784;48.490;9.688;2022-10-16T16:39:21;22.60;49.00
45044;DHT22;30784;48.490;9.688;2022-10-16T16:41:47;22.60;48.90
45044;DHT22;30784;48.490;9.688;2022-10-16T16:44:13;22.60;49.00
45044;DHT22;30784;48.490;9.688;2022-10-16T16:46:39;22.50;49.20
45044;DHT22;30784;48.490;9.688;2022-10-16T16:49:06;22.50;49.20
45044;DHT22;30784;48.490;9.688;2022-10-16T16:51:33;22.40;49.30
45044;DHT22;30784;48.490;9.688;2022-10-16T16:53:59;22.40;49.40
45044;DHT22;30784;48.490;9.688;2022-10-16T16:56:25;22.40;49.60
45044;DHT22;30784;48.490;9.688;2022-10-16T16:58:53;22.30;49.60
45044;DHT22;30784;48.490;9.688;2022-10-16T17:01:20;22.30;49.50
45044;DHT22;30784;48.490;9.688;2022-10-16T17:03:48;22.20;49.60
45044;DHT22;30784;48.490;9.688;2022-10-16T17:06:15;22.20;49.70
45044;DHT22;30784;48.490;9.688;2022-10-16T17:08:41;22.20;49.60
45044;DHT22;30784;48.490;9.688;2022-10-16T17:11:13;22.10;49.70
45044;DHT22;30784;48.490;9.688;2022-10-16T17:13:39;22.10;49.70
45044;DHT22;30784;48.490;9.688;2022-10-16T17:16:05;22.10;49.90
45044;DHT22;30784;48.490;9.688;2022-10-16T17:18:32;22.00;49.90
45044;DHT22;30784;48.490;9.688;2022-10-16T17:20:59;22.00;50.00
45044;DHT22;30784;48.490;9.688;2022-10-16T17:23:25;21.90;50.10
45044;DHT22;30784;48.490;9.688;2022-10-16T17:25:51;21.90;50.10